sensor_id;sensor_type;location;lat;lon;timestamp;P1;durP1;ratioP1;P2;durP2;ratioP2
58468;SDS011;44257;44.804;10.220;2023-11-21T00:01:02;44.90;;;34.75;;
58468;SDS011;44257;44.804;10.220;2023-11-21T00:03:30;44.00;;;35.05;;
58468;SDS011;44257;44.804;10.220;2023-11-21T00:05:56;45.90;;;35.53;;
58468;SDS011;44257;44.804;10.220;2023-11-21T00:08:21;44.90;;;35.45;;
58468;SDS011;44257;44.804;10.220;2023-11-21T00:10:47;44.78;;;35.05;;
58468;SDS011;44257;44.804;10.220;2023-11-21T00:13:13;43.60;;;34.92;;
58468;SDS011;44257;44.804;10.220;2023-11-21T00:15:39;39.20;;;33.22;;
58468;SDS011;44257;44.804;10.220;2023-11-21T00:18:05;37.00;;;32.20;;
58468;SDS011;44257;44.804;10.220;2023-11-21T00:20:31;41.42;;;34.47;;
58468;SDS011;44257;44.804;10.220;2023-11-21T00:22:57;43.75;;;33.90;;
58468;SDS011;44257;44.804;10.220;2023-11-21T00:25:24;43.67;;;33.08;;
58468;SDS011;44257;44.804;10.220;2023-11-21T00:27:50;49.67;;;35.33;;
58468;SDS011;44257;44.804;10.220;2023-11-21T00:30:16;42.70;;;35.10;;
58468;SDS011;44257;44.804;10.220;2023-11-21T00:32:42;46.05;;;37.05;;
58468;SDS011;44257;44.804;10.220;2023-11-21T00:35:08;45.92;;;37.38;;
58468;SDS011;44257;44.804;10.220;2023-11-21T00:37:34;47.05;;;37.88;;
58468;SDS011;44257;44.804;10.220;2023-11-21T00:40:00;46.53;;;38.65;;
58468;SDS011;44257;44.804;10.220;2023-11-21T00:42:30;48.75;;;38.22;;
58468;SDS011;44257;44.804;10.220;2023-11-21T00:44:59;48.42;;;40.08;;
58468;SDS011;44257;44.804;10.220;2023-11-21T00:47:25;48.13;;;39.05;;
58468;SDS011;44257;44.804;10.220;2023-11-21T00:49:50;50.85;;;39.33;;
58468;SDS011;44257;44.804;10.220;2023-11-21T00:52:16;52.40;;;41.33;;
58468;SDS011;44257;44.804;10.220;2023-11-21T00:54:42;52.58;;;40.38;;
58468;SDS011;44257;44.804;10.220;2023-11-21T00:57:08;53.60;;;40.60;;
58468;SDS011;44257;44.804;10.220;2023-11-21T00:59:34;55.42;;;42.45;;
58468;SDS011;44257;44.804;10.220;2023-11-21T01:02:00;57.40;;;42.45;;
58468;SDS011;44257;44.804;10.220;2023-11-21T01:04:26;62.70;;;44.97;;
58468;SDS011;44257;44.804;10.220;2023-11-21T01:06:53;58.72;;;43.05;;
58468;SDS011;44257;44.804;10.220;2023-11-21T01:09:19;60.58;;;46.95;;
58468;SDS011;44257;44.804;10.220;2023-11-21T01:11:45;61.95;;;48.38;;
58468;SDS011;44257;44.804;10.220;2023-11-21T01:14:11;67.10;;;50.42;;
58468;SDS011;44257;44.804;10.220;2023-11-21T01:16:38;67.30;;;50.75;;
58468;SDS011;44257;44.804;10.220;2023-11-21T01:19:04;81.10;;;57.47;;
58468;SDS011;44257;44.804;10.220;2023-11-21T01:21:30;75.97;;;55.63;;
58468;SDS011;44257;44.804;10.220;2023-11-21T01:23:56;76.90;;;57.13;;
58468;SDS011;44257;44.804;10.220;2023-11-21T01:26:22;74.72;;;56.75;;
58468;SDS011;44257;44.804;10.220;2023-11-21T01:28:48;74.78;;;57.30;;
58468;SDS011;44257;44.804;10.220;2023-11-21T01:31:14;80.07;;;59.35;;
58468;SDS011;44257;44.804;10.220;2023-11-21T01:33:40;76.65;;;57.33;;
58468;SDS011;44257;44.804;10.220;2023-11-21T01:36:06;75.60;;;56.92;;
58468;SDS011;44257;44.804;10.220;2023-11-21T01:38:33;83.90;;;60.42;;
58468;SDS011;44257;44.804;10.220;2023-11-21T01:40:59;84.38;;;60.60;;
58468;SDS011;44257;44.804;10.220;2023-11-21T01:43:26;73.75;;;57.90;;
58468;SDS011;44257;44.804;10.220;2023-11-21T01:45:54;79.43;;;57.45;;
58468;SDS011;44257;44.804;10.220;2023-11-21T01:48:22;83.47;;;60.85;;
58468;SDS011;44257;44.804;10.220;2023-11-21T01:50:48;81.15;;;60.03;;
58468;SDS011;44257;44.804;10.220;2023-11-21T01:53:14;78.65;;;56.25;;
58468;SDS011;44257;44.804;10.220;2023-11-21T01:55:41;80.18;;;59.17;;
58468;SDS011;44257;44.804;10.220;2023-11-21T01:58:09;77.43;;;57.10;;
58468;SDS011;44257;44.804;10.220;2023-11-21T02:00:37;77.70;;;57.22;;
58468;SDS011;44257;44.804;10.220;2023-11-21T02:03:03;77.95;;;56.30;;
58468;SDS011;44257;44.804;10.220;2023-11-21T02:05:29;73.57;;;54.17;;
58468;SDS011;44257;44.804;10.220;2023-11-21T02:07:57;77.55;;;56.28;;
58468;SDS011;44257;44.804;10.220;2023-11-21T02:10:23;74.57;;;55.05;;
58468;SDS011;44257;44.804;10.220;2023-11-21T02:12:49;73.18;;;55.45;;
58468;SDS011;44257;44.804;10.220;2023-11-21T02:15:15;75.75;;;57.30;;
58468;SDS011;44257;44.804;10.220;2023-11-21T02:17:45;74.40;;;56.58;;
58468;SDS011;44257;44.804;10.220;2023-11-21T02:20:12;75.90;;;58.25;;
58468;SDS011;44257;44.804;10.220;2023-11-21T02:22:43;75.65;;;55.67;;
58468;SDS011;44257;44.804;10.220;2023-11-21T02:25:14;76.85;;;58.10;;
58468;SDS011;44257;44.804;10.220;2023-11-21T02:27:40;74.07;;;55.58;;
58468;SDS011;44257;44.804;10.220;2023-11-21T02:30:07;81.95;;;58.25;;
58468;SDS011;44257;44.804;10.220;2023-11-21T02:32:37;80.10;;;57.10;;
58468;SDS011;44257;44.804;10.220;2023-11-21T02:35:05;74.57;;;55.60;;
58468;SDS011;44257;44.804;10.220;2023-11-21T02:37:33;71.57;;;55.75;;
58468;SDS011;44257;44.804;10.220;2023-11-21T02:40:00;77.72;;;55.58;;
58468;SDS011;44257;44.804;10.220;2023-11-21T02:42:29;75.22;;;53.88;;
58468;SDS011;44257;44.804;10.220;2023-11-21T02:44:55;73.88;;;55.03;;
58468;SDS011;44257;44.804;10.220;2023-11-21T02:47:22;75.53;;;56.50;;
58468;SDS011;44257;44.804;10.220;2023-11-21T02:49:48;74.70;;;55.63;;
58468;SDS011;44257;44.804;10.220;2023-11-21T02:52:15;71.65;;;53.65;;
58468;SDS011;44257;44.804;10.220;2023-11-21T02:54:41;67.65;;;53.80;;
58468;SDS011;44257;44.804;10.220;2023-11-21T02:57:07;68.07;;;54.35;;
58468;SDS011;44257;44.804;10.220;2023-11-21T02:59:34;69.18;;;51.03;;
58468;SDS011;44257;44.804;10.220;2023-11-21T03:02:00;62.08;;;47.70;;
58468;SDS011;44257;44.804;10.220;2023-11-21T03:04:26;61.20;;;46.60;;
58468;SDS011;44257;44.804;10.220;2023-11-21T03:06:52;63.97;;;47.05;;
58468;SDS011;44257;44.804;10.220;2023-11-21T03:09:18;62.30;;;46.85;;
58468;SDS011;44257;44.804;10.220;2023-11-21T03:11:43;60.28;;;46.17;;
58468;SDS011;44257;44.804;10.220;2023-11-21T03:14:09;58.13;;;45.33;;
58468;SDS011;44257;44.804;10.220;2023-11-21T03:16:35;55.17;;;43.20;;
58468;SDS011;44257;44.804;10.220;2023-11-21T03:19:03;60.72;;;46.15;;
58468;SDS011;44257;44.804;10.220;2023-11-21T03:21:30;57.03;;;43.53;;
58468;SDS011;44257;44.804;10.220;2023-11-21T03:23:56;55.22;;;44.95;;
58468;SDS011;44257;44.804;10.220;2023-11-21T03:26:22;54.40;;;43.63;;
58468;SDS011;44257;44.804;10.220;2023-11-21T03:28:47;56.88;;;43.25;;
58468;SDS011;44257;44.804;10.220;2023-11-21T03:31:13;51.97;;;43.40;;
58468;SDS011;44257;44.804;10.220;2023-11-21T03:33:42;50.15;;;40.95;;
58468;SDS011;44257;44.804;10.220;2023-11-21T03:36:08;55.35;;;42.15;;
58468;SDS011;44257;44.804;10.220;2023-11-21T03:38:34;55.00;;;43.67;;
58468;SDS011;44257;44.804;10.220;2023-11-21T03:41:00;56.42;;;42.67;;
58468;SDS011;44257;44.804;10.220;2023-11-21T03:43:27;52.25;;;41.85;;
58468;SDS011;44257;44.804;10.220;2023-11-21T03:45:53;54.25;;;43.97;;
58468;SDS011;44257;44.804;10.220;2023-11-21T03:48:19;55.72;;;41.38;;
58468;SDS011;44257;44.804;10.220;2023-11-21T03:50:45;52.47;;;42.05;;
58468;SDS011;44257;44.804;10.220;2023-11-21T03:53:12;56.55;;;43.85;;
58468;SDS011;44257;44.804;10.220;2023-11-21T03:55:38;60.60;;;44.45;;
58468;SDS011;44257;44.804;10.220;2023-11-21T03:58:04;53.15;;;42.65;;
58468;SDS011;44257;44.804;10.220;2023-11-21T04:00:29;60.17;;;42.53;;
58468;SDS011;44257;44.804;10.220;2023-11-21T04:02:55;55.55;;;43.42;;
58468;SDS011;44257;44.804;10.220;2023-11-21T04:05:21;57.13;;;44.45;;
58468;SDS011;44257;44.804;10.220;2023-11-21T04:07:51;57.80;;;43.85;;
58468;SDS011;44257;44.804;10.220;2023-11-21T04:10:17;55.70;;;43.58;;
58468;SDS011;44257;44.804;10.220;2023-11-21T04:12:43;57.40;;;42.60;;
58468;SDS011;44257;44.804;10.220;2023-11-21T04:15:10;55.33;;;42.95;;
58468;SDS011;44257;44.804;10.220;2023-11-21T04:17:38;55.47;;;42.58;;
58468;SDS011;44257;44.804;10.220;2023-11-21T04:20:05;55.70;;;43.88;;
58468;SDS011;44257;44.804;10.220;2023-11-21T04:22:36;58.15;;;45.08;;
58468;SDS011;44257;44.804;10.220;2023-11-21T04:25:13;57.20;;;44.10;;
58468;SDS011;44257;44.804;10.220;2023-11-21T04:27:40;61.40;;;45.00;;
58468;SDS011;44257;44.804;10.220;2023-11-21T04:30:09;55.72;;;44.38;;
58468;SDS011;44257;44.804;10.220;2023-11-21T04:32:35;55.58;;;44.45;;
58468;SDS011;44257;44.804;10.220;2023-11-21T04:35:01;59.03;;;46.40;;
58468;SDS011;44257;44.804;10.220;2023-11-21T04:37:29;58.42;;;47.17;;
58468;SDS011;44257;44.804;10.220;2023-11-21T04:39:55;60.20;;;47.22;;
58468;SDS011;44257;44.804;10.220;2023-11-21T04:42:20;60.78;;;46.58;;
58468;SDS011;44257;44.804;10.220;2023-11-21T04:44:47;64.72;;;46.45;;
58468;SDS011;44257;44.804;10.220;2023-11-21T04:47:13;59.78;;;46.15;;
58468;SDS011;44257;44.804;10.220;2023-11-21T04:49:41;65.18;;;48.63;;
58468;SDS011;44257;44.804;10.220;2023-11-21T04:52:07;64.13;;;49.47;;
58468;SDS011;44257;44.804;10.220;2023-11-21T04:54:35;62.33;;;47.28;;
58468;SDS011;44257;44.804;10.220;2023-11-21T04:57:01;64.72;;;50.92;;
58468;SDS011;44257;44.804;10.220;2023-11-21T04:59:26;70.32;;;49.40;;
58468;SDS011;44257;44.804;10.220;2023-11-21T05:01:53;71.32;;;50.33;;
58468;SDS011;44257;44.804;10.220;2023-11-21T05:04:19;70.95;;;50.40;;
58468;SDS011;44257;44.804;10.220;2023-11-21T05:06:47;67.70;;;50.55;;
58468;SDS011;44257;44.804;10.220;2023-11-21T05:09:13;68.05;;;52.40;;
58468;SDS011;44257;44.804;10.220;2023-11-21T05:11:39;67.80;;;50.35;;
58468;SDS011;44257;44.804;10.220;2023-11-21T05:14:06;70.30;;;52.90;;
58468;SDS011;44257;44.804;10.220;2023-11-21T05:16:32;71.10;;;52.38;;
58468;SDS011;44257;44.804;10.220;2023-11-21T05:18:58;73.60;;;53.40;;
58468;SDS011;44257;44.804;10.220;2023-11-21T05:21:29;72.78;;;53.13;;
58468;SDS011;44257;44.804;10.220;2023-11-21T05:26:24;74.45;;;54.78;;
58468;SDS011;44257;44.804;10.220;2023-11-21T05:28:49;75.97;;;55.28;;
58468;SDS011;44257;44.804;10.220;2023-11-21T05:31:15;80.15;;;58.00;;
58468;SDS011;44257;44.804;10.220;2023-11-21T05:33:41;87.90;;;64.18;;
58468;SDS011;44257;44.804;10.220;2023-11-21T05:36:07;86.90;;;66.72;;
58468;SDS011;44257;44.804;10.220;2023-11-21T05:38:35;85.35;;;67.97;;
58468;SDS011;44257;44.804;10.220;2023-11-21T05:41:02;104.45;;;81.82;;
58468;SDS011;44257;44.804;10.220;2023-11-21T05:43:29;77.03;;;56.70;;
58468;SDS011;44257;44.804;10.220;2023-11-21T05:45:55;77.05;;;56.25;;
58468;SDS011;44257;44.804;10.220;2023-11-21T05:48:21;85.50;;;56.83;;
58468;SDS011;44257;44.804;10.220;2023-11-21T05:50:48;70.45;;;54.33;;
58468;SDS011;44257;44.804;10.220;2023-11-21T05:53:15;77.85;;;56.45;;
58468;SDS011;44257;44.804;10.220;2023-11-21T05:55:41;77.15;;;56.58;;
58468;SDS011;44257;44.804;10.220;2023-11-21T05:58:07;77.50;;;56.47;;
58468;SDS011;44257;44.804;10.220;2023-11-21T06:00:34;75.40;;;55.95;;
58468;SDS011;44257;44.804;10.220;2023-11-21T06:03:01;74.32;;;55.78;;
58468;SDS011;44257;44.804;10.220;2023-11-21T06:05:27;75.03;;;55.92;;
58468;SDS011;44257;44.804;10.220;2023-11-21T06:07:54;74.28;;;55.53;;
58468;SDS011;44257;44.804;10.220;2023-11-21T06:10:23;80.10;;;55.70;;
58468;SDS011;44257;44.804;10.220;2023-11-21T06:12:50;71.90;;;55.38;;
58468;SDS011;44257;44.804;10.220;2023-11-21T06:15:16;73.35;;;54.17;;
58468;SDS011;44257;44.804;10.220;2023-11-21T06:17:44;66.85;;;52.53;;
58468;SDS011;44257;44.804;10.220;2023-11-21T06:20:14;74.03;;;54.53;;
58468;SDS011;44257;44.804;10.220;2023-11-21T06:22:43;75.80;;;54.78;;
58468;SDS011;44257;44.804;10.220;2023-11-21T06:25:09;71.78;;;53.38;;
58468;SDS011;44257;44.804;10.220;2023-11-21T06:27:42;74.00;;;54.40;;
58468;SDS011;44257;44.804;10.220;2023-11-21T06:30:12;75.80;;;54.53;;
58468;SDS011;44257;44.804;10.220;2023-11-21T06:32:40;72.00;;;53.03;;
58468;SDS011;44257;44.804;10.220;2023-11-21T06:35:07;68.07;;;50.13;;
58468;SDS011;44257;44.804;10.220;2023-11-21T06:37:37;66.32;;;51.95;;
58468;SDS011;44257;44.804;10.220;2023-11-21T06:40:03;69.30;;;53.33;;
58468;SDS011;44257;44.804;10.220;2023-11-21T06:42:30;64.35;;;50.28;;
58468;SDS011;44257;44.804;10.220;2023-11-21T06:44:56;67.68;;;50.13;;
58468;SDS011;44257;44.804;10.220;2023-11-21T06:47:23;73.40;;;50.47;;
58468;SDS011;44257;44.804;10.220;2023-11-21T06:49:53;66.65;;;50.58;;
58468;SDS011;44257;44.804;10.220;2023-11-21T06:52:19;65.85;;;51.03;;
58468;SDS011;44257;44.804;10.220;2023-11-21T06:54:45;64.57;;;49.38;;
58468;SDS011;44257;44.804;10.220;2023-11-21T06:57:12;63.35;;;49.67;;
58468;SDS011;44257;44.804;10.220;2023-11-21T06:59:38;62.45;;;49.10;;
58468;SDS011;44257;44.804;10.220;2023-11-21T07:02:04;65.18;;;50.40;;
58468;SDS011;44257;44.804;10.220;2023-11-21T07:04:36;62.65;;;48.75;;
58468;SDS011;44257;44.804;10.220;2023-11-21T07:07:02;62.17;;;47.00;;
58468;SDS011;44257;44.804;10.220;2023-11-21T07:09:29;60.88;;;46.92;;
58468;SDS011;44257;44.804;10.220;2023-11-21T07:11:56;61.13;;;47.55;;
58468;SDS011;44257;44.804;10.220;2023-11-21T07:14:22;65.68;;;48.33;;
58468;SDS011;44257;44.804;10.220;2023-11-21T07:16:48;62.35;;;47.10;;
58468;SDS011;44257;44.804;10.220;2023-11-21T07:19:13;63.75;;;49.45;;
58468;SDS011;44257;44.804;10.220;2023-11-21T07:21:39;65.13;;;49.58;;
58468;SDS011;44257;44.804;10.220;2023-11-21T07:24:06;63.38;;;48.25;;
58468;SDS011;44257;44.804;10.220;2023-11-21T07:26:33;64.78;;;50.65;;
58468;SDS011;44257;44.804;10.220;2023-11-21T07:29:00;68.05;;;51.45;;
58468;SDS011;44257;44.804;10.220;2023-11-21T07:31:28;71.65;;;54.30;;
58468;SDS011;44257;44.804;10.220;2023-11-21T07:33:54;74.32;;;54.85;;
58468;SDS011;44257;44.804;10.220;2023-11-21T07:36:22;70.72;;;53.58;;
58468;SDS011;44257;44.804;10.220;2023-11-21T07:38:49;70.93;;;52.72;;
58468;SDS011;44257;44.804;10.220;2023-11-21T07:41:15;67.15;;;52.45;;
58468;SDS011;44257;44.804;10.220;2023-11-21T07:43:43;65.38;;;52.50;;
58468;SDS011;44257;44.804;10.220;2023-11-21T07:46:09;73.65;;;53.83;;
58468;SDS011;44257;44.804;10.220;2023-11-21T07:48:37;69.22;;;52.88;;
58468;SDS011;44257;44.804;10.220;2023-11-21T07:51:08;72.72;;;54.60;;
58468;SDS011;44257;44.804;10.220;2023-11-21T07:53:35;74.90;;;55.55;;
58468;SDS011;44257;44.804;10.220;2023-11-21T07:56:04;77.25;;;54.95;;
58468;SDS011;44257;44.804;10.220;2023-11-21T07:58:31;75.82;;;55.30;;
58468;SDS011;44257;44.804;10.220;2023-11-21T08:01:01;73.03;;;55.38;;
58468;SDS011;44257;44.804;10.220;2023-11-21T08:03:27;75.45;;;56.42;;
58468;SDS011;44257;44.804;10.220;2023-11-21T08:05:55;80.20;;;56.30;;
58468;SDS011;44257;44.804;10.220;2023-11-21T08:08:24;79.97;;;53.72;;
58468;SDS011;44257;44.804;10.220;2023-11-21T08:10:51;69.75;;;53.00;;
58468;SDS011;44257;44.804;10.220;2023-11-21T08:13:23;74.25;;;53.70;;
58468;SDS011;44257;44.804;10.220;2023-11-21T08:15:50;70.88;;;51.60;;
58468;SDS011;44257;44.804;10.220;2023-11-21T08:18:19;65.68;;;51.30;;
58468;SDS011;44257;44.804;10.220;2023-11-21T08:20:44;71.53;;;51.97;;
58468;SDS011;44257;44.804;10.220;2023-11-21T08:23:13;67.78;;;50.97;;
58468;SDS011;44257;44.804;10.220;2023-11-21T08:25:41;66.65;;;51.58;;
58468;SDS011;44257;44.804;10.220;2023-11-21T08:28:07;69.00;;;51.63;;
58468;SDS011;44257;44.804;10.220;2023-11-21T08:30:33;69.80;;;51.38;;
58468;SDS011;44257;44.804;10.220;2023-11-21T08:33:00;70.15;;;51.72;;
58468;SDS011;44257;44.804;10.220;2023-11-21T08:35:25;64.40;;;50.47;;
58468;SDS011;44257;44.804;10.220;2023-11-21T08:37:51;69.80;;;52.58;;
58468;SDS011;44257;44.804;10.220;2023-11-21T08:40:20;66.70;;;51.17;;
58468;SDS011;44257;44.804;10.220;2023-11-21T08:42:47;63.33;;;50.05;;
58468;SDS011;44257;44.804;10.220;2023-11-21T08:45:16;66.25;;;52.22;;
58468;SDS011;44257;44.804;10.220;2023-11-21T08:47:42;73.95;;;54.35;;
58468;SDS011;44257;44.804;10.220;2023-11-21T08:50:12;69.38;;;53.25;;
58468;SDS011;44257;44.804;10.220;2023-11-21T08:52:38;75.07;;;57.72;;
58468;SDS011;44257;44.804;10.220;2023-11-21T08:55:05;82.82;;;61.55;;
58468;SDS011;44257;44.804;10.220;2023-11-21T08:57:35;82.20;;;61.65;;
58468;SDS011;44257;44.804;10.220;2023-11-21T09:00:01;84.90;;;63.72;;
58468;SDS011;44257;44.804;10.220;2023-11-21T09:02:28;91.50;;;66.32;;
58468;SDS011;44257;44.804;10.220;2023-11-21T09:04:54;89.72;;;66.68;;
58468;SDS011;44257;44.804;10.220;2023-11-21T09:07:20;89.65;;;65.05;;
58468;SDS011;44257;44.804;10.220;2023-11-21T09:09:49;93.78;;;70.53;;
58468;SDS011;44257;44.804;10.220;2023-11-21T09:12:15;92.80;;;65.53;;
58468;SDS011;44257;44.804;10.220;2023-11-21T09:14:42;89.32;;;65.47;;
58468;SDS011;44257;44.804;10.220;2023-11-21T09:17:12;89.97;;;66.40;;
58468;SDS011;44257;44.804;10.220;2023-11-21T09:19:39;94.20;;;68.03;;
58468;SDS011;44257;44.804;10.220;2023-11-21T09:22:05;87.50;;;65.03;;
58468;SDS011;44257;44.804;10.220;2023-11-21T09:24:32;93.47;;;68.25;;
58468;SDS011;44257;44.804;10.220;2023-11-21T09:26:58;87.20;;;65.32;;
58468;SDS011;44257;44.804;10.220;2023-11-21T09:29:28;91.82;;;67.63;;
58468;SDS011;44257;44.804;10.220;2023-11-21T09:31:54;94.75;;;67.60;;
58468;SDS011;44257;44.804;10.220;2023-11-21T09:34:21;88.47;;;66.07;;
58468;SDS011;44257;44.804;10.220;2023-11-21T09:36:47;90.10;;;66.10;;
58468;SDS011;44257;44.804;10.220;2023-11-21T09:39:13;89.07;;;65.88;;
58468;SDS011;44257;44.804;10.220;2023-11-21T09:44:09;84.10;;;63.70;;
58468;SDS011;44257;44.804;10.220;2023-11-21T09:46:42;92.00;;;65.53;;
58468;SDS011;44257;44.804;10.220;2023-11-21T09:49:11;93.30;;;65.68;;
58468;SDS011;44257;44.804;10.220;2023-11-21T09:51:39;85.32;;;63.28;;
58468;SDS011;44257;44.804;10.220;2023-11-21T09:54:07;87.35;;;64.68;;
58468;SDS011;44257;44.804;10.220;2023-11-21T09:56:38;91.33;;;65.43;;
58468;SDS011;44257;44.804;10.220;2023-11-21T09:59:04;84.97;;;64.97;;
58468;SDS011;44257;44.804;10.220;2023-11-21T10:01:33;84.82;;;65.40;;
58468;SDS011;44257;44.804;10.220;2023-11-21T10:04:02;85.00;;;64.80;;
58468;SDS011;44257;44.804;10.220;2023-11-21T10:06:28;87.03;;;63.13;;
58468;SDS011;44257;44.804;10.220;2023-11-21T10:08:55;78.30;;;62.65;;
58468;SDS011;44257;44.804;10.220;2023-11-21T10:11:25;82.57;;;62.45;;
58468;SDS011;44257;44.804;10.220;2023-11-21T10:13:55;86.03;;;61.47;;
58468;SDS011;44257;44.804;10.220;2023-11-21T10:16:25;80.07;;;59.80;;
58468;SDS011;44257;44.804;10.220;2023-11-21T10:18:52;80.20;;;61.58;;
58468;SDS011;44257;44.804;10.220;2023-11-21T10:21:21;77.88;;;60.78;;
58468;SDS011;44257;44.804;10.220;2023-11-21T10:23:47;78.13;;;60.95;;
58468;SDS011;44257;44.804;10.220;2023-11-21T10:26:13;78.28;;;59.92;;
58468;SDS011;44257;44.804;10.220;2023-11-21T10:31:24;79.38;;;59.97;;
58468;SDS011;44257;44.804;10.220;2023-11-21T10:33:56;83.78;;;59.80;;
58468;SDS011;44257;44.804;10.220;2023-11-21T10:36:42;79.90;;;61.28;;
58468;SDS011;44257;44.804;10.220;2023-11-21T10:39:08;82.68;;;62.22;;
58468;SDS011;44257;44.804;10.220;2023-11-21T10:41:35;80.28;;;59.90;;
58468;SDS011;44257;44.804;10.220;2023-11-21T10:44:01;82.90;;;60.42;;
58468;SDS011;44257;44.804;10.220;2023-11-21T10:46:32;77.18;;;58.88;;
58468;SDS011;44257;44.804;10.220;2023-11-21T10:48:59;74.47;;;57.92;;
58468;SDS011;44257;44.804;10.220;2023-11-21T10:51:25;78.72;;;59.95;;
58468;SDS011;44257;44.804;10.220;2023-11-21T10:53:52;79.88;;;59.97;;
58468;SDS011;44257;44.804;10.220;2023-11-21T10:56:18;86.28;;;60.80;;
58468;SDS011;44257;44.804;10.220;2023-11-21T10:58:47;78.82;;;60.38;;
58468;SDS011;44257;44.804;10.220;2023-11-21T11:01:15;80.13;;;59.97;;
58468;SDS011;44257;44.804;10.220;2023-11-21T11:03:43;79.20;;;60.13;;
58468;SDS011;44257;44.804;10.220;2023-11-21T11:06:10;82.50;;;61.05;;
58468;SDS011;44257;44.804;10.220;2023-11-21T11:08:39;81.63;;;59.60;;
58468;SDS011;44257;44.804;10.220;2023-11-21T11:11:05;77.72;;;61.22;;
58468;SDS011;44257;44.804;10.220;2023-11-21T11:13:32;83.70;;;62.45;;
58468;SDS011;44257;44.804;10.220;2023-11-21T11:15:59;80.93;;;60.10;;
58468;SDS011;44257;44.804;10.220;2023-11-21T11:18:27;79.30;;;60.90;;
58468;SDS011;44257;44.804;10.220;2023-11-21T11:20:54;82.75;;;61.28;;
58468;SDS011;44257;44.804;10.220;2023-11-21T11:23:32;76.88;;;57.28;;
58468;SDS011;44257;44.804;10.220;2023-11-21T11:26:42;75.68;;;59.08;;
58468;SDS011;44257;44.804;10.220;2023-11-21T11:35:04;73.35;;;57.95;;
58468;SDS011;44257;44.804;10.220;2023-11-21T11:37:48;69.68;;;54.35;;
58468;SDS011;44257;44.804;10.220;2023-11-21T11:40:14;67.28;;;53.65;;
58468;SDS011;44257;44.804;10.220;2023-11-21T11:42:55;68.90;;;54.63;;
58468;SDS011;44257;44.804;10.220;2023-11-21T11:45:34;68.53;;;53.50;;
58468;SDS011;44257;44.804;10.220;2023-11-21T11:48:01;72.50;;;56.88;;
58468;SDS011;44257;44.804;10.220;2023-11-21T11:50:28;68.07;;;52.95;;
58468;SDS011;44257;44.804;10.220;2023-11-21T11:52:55;68.85;;;54.35;;
58468;SDS011;44257;44.804;10.220;2023-11-21T11:55:38;71.18;;;55.35;;
58468;SDS011;44257;44.804;10.220;2023-11-21T11:58:05;72.93;;;57.28;;
58468;SDS011;44257;44.804;10.220;2023-11-21T12:03:00;72.32;;;56.65;;
58468;SDS011;44257;44.804;10.220;2023-11-21T12:05:33;75.15;;;56.50;;
58468;SDS011;44257;44.804;10.220;2023-11-21T12:08:03;75.13;;;57.35;;
58468;SDS011;44257;44.804;10.220;2023-11-21T12:10:31;70.35;;;54.65;;
58468;SDS011;44257;44.804;10.220;2023-11-21T12:13:02;72.15;;;55.65;;
58468;SDS011;44257;44.804;10.220;2023-11-21T12:15:33;70.15;;;54.85;;
58468;SDS011;44257;44.804;10.220;2023-11-21T12:18:00;70.72;;;54.03;;
58468;SDS011;44257;44.804;10.220;2023-11-21T12:20:26;74.03;;;55.17;;
58468;SDS011;44257;44.804;10.220;2023-11-21T12:22:53;71.43;;;55.78;;
58468;SDS011;44257;44.804;10.220;2023-11-21T12:25:22;69.38;;;54.55;;
58468;SDS011;44257;44.804;10.220;2023-11-21T12:27:55;69.45;;;54.05;;
58468;SDS011;44257;44.804;10.220;2023-11-21T12:30:23;68.25;;;55.10;;
58468;SDS011;44257;44.804;10.220;2023-11-21T12:32:51;73.15;;;55.60;;
58468;SDS011;44257;44.804;10.220;2023-11-21T12:35:18;70.22;;;55.03;;
58468;SDS011;44257;44.804;10.220;2023-11-21T12:37:46;69.15;;;53.10;;
58468;SDS011;44257;44.804;10.220;2023-11-21T12:40:13;69.40;;;55.33;;
58468;SDS011;44257;44.804;10.220;2023-11-21T12:42:43;66.65;;;53.33;;
58468;SDS011;44257;44.804;10.220;2023-11-21T12:47:46;70.18;;;53.53;;
58468;SDS011;44257;44.804;10.220;2023-11-21T12:50:15;76.13;;;52.72;;
58468;SDS011;44257;44.804;10.220;2023-11-21T12:52:47;70.22;;;52.72;;
58468;SDS011;44257;44.804;10.220;2023-11-21T12:57:43;67.28;;;53.55;;
58468;SDS011;44257;44.804;10.220;2023-11-21T13:00:10;75.68;;;55.13;;
58468;SDS011;44257;44.804;10.220;2023-11-21T13:02:50;66.32;;;51.53;;
58468;SDS011;44257;44.804;10.220;2023-11-21T13:05:26;63.90;;;49.38;;
58468;SDS011;44257;44.804;10.220;2023-11-21T13:07:56;67.47;;;48.58;;
58468;SDS011;44257;44.804;10.220;2023-11-21T13:10:25;64.85;;;50.78;;
58468;SDS011;44257;44.804;10.220;2023-11-21T13:12:56;64.22;;;50.20;;
58468;SDS011;44257;44.804;10.220;2023-11-21T13:15:28;63.35;;;50.00;;
58468;SDS011;44257;44.804;10.220;2023-11-21T13:17:56;84.05;;;52.40;;
58468;SDS011;44257;44.804;10.220;2023-11-21T13:20:23;68.57;;;51.72;;
58468;SDS011;44257;44.804;10.220;2023-11-21T13:22:52;65.88;;;50.17;;
58468;SDS011;44257;44.804;10.220;2023-11-21T13:25:23;64.25;;;50.75;;
58468;SDS011;44257;44.804;10.220;2023-11-21T13:27:55;63.72;;;50.90;;
58468;SDS011;44257;44.804;10.220;2023-11-21T13:30:21;66.45;;;49.63;;
58468;SDS011;44257;44.804;10.220;2023-11-21T13:32:52;64.95;;;49.00;;
58468;SDS011;44257;44.804;10.220;2023-11-21T13:35:30;70.15;;;52.75;;
58468;SDS011;44257;44.804;10.220;2023-11-21T13:38:02;67.18;;;51.65;;
58468;SDS011;44257;44.804;10.220;2023-11-21T13:40:34;70.13;;;51.90;;
58468;SDS011;44257;44.804;10.220;2023-11-21T13:43:14;66.78;;;51.45;;
58468;SDS011;44257;44.804;10.220;2023-11-21T13:45:42;67.15;;;53.50;;
58468;SDS011;44257;44.804;10.220;2023-11-21T13:48:09;65.70;;;52.88;;
58468;SDS011;44257;44.804;10.220;2023-11-21T13:50:44;71.10;;;55.72;;
58468;SDS011;44257;44.804;10.220;2023-11-21T13:53:32;70.32;;;53.25;;
58468;SDS011;44257;44.804;10.220;2023-11-21T13:56:01;69.13;;;53.08;;
58468;SDS011;44257;44.804;10.220;2023-11-21T13:58:27;68.03;;;52.28;;
58468;SDS011;44257;44.804;10.220;2023-11-21T14:01:26;70.30;;;52.88;;
58468;SDS011;44257;44.804;10.220;2023-11-21T14:04:12;67.85;;;52.78;;
58468;SDS011;44257;44.804;10.220;2023-11-21T14:06:42;66.20;;;51.75;;
58468;SDS011;44257;44.804;10.220;2023-11-21T14:09:23;65.30;;;51.97;;
58468;SDS011;44257;44.804;10.220;2023-11-21T14:11:51;63.30;;;50.40;;
58468;SDS011;44257;44.804;10.220;2023-11-21T14:14:24;69.38;;;49.28;;
58468;SDS011;44257;44.804;10.220;2023-11-21T14:16:51;63.92;;;50.85;;
58468;SDS011;44257;44.804;10.220;2023-11-21T14:19:17;64.03;;;50.22;;
58468;SDS011;44257;44.804;10.220;2023-11-21T14:21:44;63.95;;;49.08;;
58468;SDS011;44257;44.804;10.220;2023-11-21T14:24:11;68.38;;;50.08;;
58468;SDS011;44257;44.804;10.220;2023-11-21T14:26:44;67.88;;;50.88;;
58468;SDS011;44257;44.804;10.220;2023-11-21T14:29:11;66.07;;;49.58;;
58468;SDS011;44257;44.804;10.220;2023-11-21T14:31:45;67.80;;;52.65;;
58468;SDS011;44257;44.804;10.220;2023-11-21T14:34:11;69.35;;;50.92;;